aviador You're here:

KPNE Decoded Metar

PHILADELPHIA in PA, USA
Report Time2018-05-23 15:54:00
UTC Time2018-05-23 16:38:49
Flight Rules vfr VFR
Wind320° at 09 kt
W.Decomp.*RWY 33: 9.0 kt HW 0.3 kt RCW
RWY 06: 0.3 kt HW 9 kt LCW
W.Rank320° ranks 8
Current wind is above 320° avg. (8.4)
Visibility9999 m
Phenomena:N/A
Clouds:Few 030 Hf
Scattered 048 Hf
Broken 070 Hf
Expected CloudBase > 3,600 ft AGL from Temp-Dew spread
Ceiling7,000 ft
Temp26°C (ISA +11)
Dew Point17°C (58% RH)
AAT25.2°C
QNH1015 hPa
Density Alt1,575 ft
Elevation92 ft
Report Wrong Elevation
Raw Report
KPNE 231554Z 32009KT 10SM FEW030 SCT048 BKN070 26/17 A2998 RMK AO2
SLP150 T02560172=

Extra information for KPNE:More info

Metar Taf Metar & Taf Last 4 Metars F.Rules Stats Wind Profile Meteogram Temp Stats Airport Information Weather charts Add Link Nearby VenuesMetar ALERT Operation Metar Decoded Social comments

AIRNAV info for KPNE